Time;durP1;ratioP1;P1;durP2;ratioP2;P2;SDS_P1;SDS_P2;PMS_P1;PMS_P2;Temp;Humidity;BMP_temperature;BMP_pressure;BME280_temperature;BME280_humidity;BME280_pressure;Samples;Min_cycle;Max_cycle;Signal;HPM_P1;HPM_P2
2023/05/18 00:00:43;;;;;;;0.50;0.50;;;13.40;72.40;;;;;;5108778;28;20193;-66
2023/05/18 00:03:13;;;;;;;1.17;0.50;;;13.40;73.40;;;;;;5112035;28;20280;-67
2023/05/18 00:05:41;;;;;;;0.60;0.47;;;13.40;73.50;;;;;;5108674;28;20204;-67
2023/05/18 00:08:09;;;;;;;1.23;0.50;;;13.40;90.10;;;;;;5107287;27;20224;-66
2023/05/18 00:10:36;;;;;;;0.40;0.40;;;13.30;73.50;;;;;;5108902;27;20212;-67
2023/05/18 00:13:04;;;;;;;0.97;0.63;;;13.30;73.50;;;;;;5106260;28;20194;-67
2023/05/18 00:15:31;;;;;;;1.43;0.50;;;13.30;73.60;;;;;;5100746;28;20661;-66
2023/05/18 00:18:00;;;;;;;1.40;0.60;;;13.30;73.60;;;;;;5101917;28;20319;-66
2023/05/18 00:20:29;;;;;;;0.60;0.53;;;13.20;73.50;;;;;;5103766;27;20247;-67
2023/05/18 00:22:56;;;;;;;0.87;0.40;;;13.20;73.50;;;;;;5104079;28;20538;-67
2023/05/18 00:25:23;;;;;;;0.50;0.50;;;13.20;73.50;;;;;;5099441;28;20210;-66
2023/05/18 00:27:51;;;;;;;0.87;0.57;;;13.30;73.80;;;;;;5096372;28;20217;-66
2023/05/18 00:30:19;;;;;;;0.27;0.27;;;13.20;74.30;;;;;;5100197;28;20826;-67
2023/05/18 00:32:46;;;;;;;0.93;0.53;;;11.00;71.60;;;;;;5106115;28;20198;-66
2023/05/18 00:35:15;;;;;;;0.40;0.40;;;13.20;73.20;;;;;;5097413;28;20209;-67
2023/05/18 00:37:42;;;;;;;0.50;0.50;;;13.20;74.10;;;;;;5104040;28;20203;-67
2023/05/18 00:40:11;;;;;;;0.50;0.50;;;13.10;92.00;;;;;;5102326;28;20236;-65
2023/05/18 00:42:38;;;;;;;0.63;0.63;;;13.20;74.00;;;;;;5110427;28;20280;-66
2023/05/18 00:45:07;;;;;;;0.60;0.60;;;13.20;74.50;;;;;;5106588;28;20210;-67
2023/05/18 00:47:34;;;;;;;0.60;0.43;;;13.20;74.40;;;;;;5104910;28;20208;-67
2023/05/18 00:50:01;;;;;;;0.57;0.50;;;13.20;74.50;;;;;;5105602;28;20221;-67
2023/05/18 00:52:31;;;;;;;0.87;0.50;;;13.30;91.70;;;;;;5108697;28;20319;-66
2023/05/18 00:54:59;;;;;;;1.40;0.50;;;13.20;74.60;;;;;;5105100;28;20211;-67
2023/05/18 00:57:27;;;;;;;0.40;0.40;;;13.20;74.60;;;;;;5103763;28;20296;-66
2023/05/18 00:59:55;;;;;;;0.43;0.40;;;13.20;74.70;;;;;;5109822;28;20233;-66
2023/05/18 01:02:23;;;;;;;0.43;0.43;;;13.20;74.70;;;;;;5110510;28;20220;-66
2023/05/18 01:04:51;;;;;;;0.83;0.50;;;13.10;74.80;;;;;;5108776;27;20661;-67
2023/05/18 01:07:21;;;;;;;0.90;0.47;;;13.10;74.90;;;;;;5107938;28;20675;-66
2023/05/18 01:09:52;;;;;;;0.40;0.40;;;13.10;75.00;;;;;;5109480;28;20693;-66
2023/05/18 01:12:25;;;;;;;1.27;0.50;;;13.10;75.60;;;;;;5103935;28;20739;-66
2023/05/18 01:15:07;;;;;;;2.80;0.50;;;13.20;74.80;;;;;;5107630;28;20257;-66
2023/05/18 01:17:43;;;;;;;0.97;0.50;;;13.10;91.80;;;;;;5104381;28;20217;-66
2023/05/18 01:20:36;;;;;;;0.87;0.40;;;13.20;75.00;;;;;;5106176;28;20201;-67
2023/05/18 01:23:22;;;;;;;1.07;0.40;;;13.50;75.30;;;;;;5103169;28;20213;-65
2023/05/18 01:26:02;;;;;;;0.40;0.40;;;13.20;75.00;;;;;;5098031;28;20199;-66
2023/05/18 01:28:33;;;;;;;0.53;0.53;;;13.20;92.40;;;;;;5106680;28;20201;-65
2023/05/18 01:31:03;;;;;;;0.37;0.37;;;13.20;75.20;;;;;;5103845;28;20236;-66
2023/05/18 01:33:33;;;;;;;0.50;0.50;;;;;;;;;;5103505;28;20303;-66
2023/05/18 01:36:02;;;;;;;0.40;0.40;;;13.20;74.50;;;;;;5097979;28;20209;-66
2023/05/18 01:38:29;;;;;;;0.80;0.50;;;13.10;75.50;;;;;;5099279;28;20258;-66
2023/05/18 01:41:12;;;;;;;0.30;0.30;;;13.10;76.80;;;;;;5103604;28;20219;-67
2023/05/18 01:43:47;;;;;;;0.40;0.40;;;13.10;74.90;;;;;;5110235;27;20199;-67
2023/05/18 01:46:22;;;;;;;0.50;0.50;;;13.10;75.80;;;;;;5105132;28;20204;-67
2023/05/18 01:48:56;;;;;;;0.53;0.40;;;13.10;75.60;;;;;;5112665;28;20243;-67
2023/05/18 01:51:31;;;;;;;0.40;0.40;;;13.50;76.10;;;;;;5113600;28;20463;-67
2023/05/18 01:54:02;;;;;;;0.70;0.50;;;13.00;75.90;;;;;;5113160;28;20206;-67
2023/05/18 01:56:33;;;;;;;0.47;0.47;;;13.00;75.60;;;;;;5109640;28;20287;-66
2023/05/18 01:59:01;;;;;;;0.40;0.40;;;;;;;;;;5114848;28;20195;-65
2023/05/18 02:01:28;;;;;;;0.33;0.33;;;13.00;95.00;;;;;;5116667;27;20205;-65
2023/05/18 02:03:55;;;;;;;0.40;0.40;;;13.10;92.40;;;;;;5112933;28;20214;-66
2023/05/18 02:06:23;;;;;;;2.50;0.47;;;13.00;75.90;;;;;;5111034;28;20282;-65
2023/05/18 02:08:50;;;;;;;0.57;0.50;;;13.20;92.70;;;;;;5112823;28;20611;-67
2023/05/18 02:11:18;;;;;;;1.90;0.60;;;13.10;75.70;;;;;;5111351;28;20663;-66
2023/05/18 02:13:46;;;;;;;0.50;0.50;;;13.10;74.90;;;;;;5112184;28;20203;-66
2023/05/18 02:16:14;;;;;;;0.70;0.57;;;;;;;;;;5113307;28;20532;-67
2023/05/18 02:18:41;;;;;;;0.70;0.70;;;13.10;74.90;;;;;;5111497;28;20219;-66
2023/05/18 02:21:09;;;;;;;0.70;0.70;;;13.10;75.90;;;;;;5107979;27;20201;-66
2023/05/18 02:23:36;;;;;;;0.40;0.40;;;13.10;75.60;;;;;;5106792;28;20564;-66
2023/05/18 02:26:03;;;;;;;1.37;0.60;;;13.30;93.50;;;;;;5110759;28;20216;-67
2023/05/18 02:28:31;;;;;;;0.60;0.60;;;13.00;75.70;;;;;;5111080;28;20233;-67
2023/05/18 02:31:07;;;;;;;0.53;0.53;;;13.10;94.20;;;;;;5105948;28;20211;-67
2023/05/18 02:33:38;;;;;;;0.50;0.50;;;;;;;;;;5105596;28;20208;-67
2023/05/18 02:36:08;;;;;;;0.50;0.50;;;13.00;95.60;;;;;;5101916;27;20216;-67
2023/05/18 02:38:39;;;;;;;0.70;0.50;;;12.90;75.90;;;;;;5106455;28;20237;-66
2023/05/18 02:41:07;;;;;;;0.67;0.67;;;;;;;;;;5108045;28;20197;-67
2023/05/18 02:43:34;;;;;;;0.40;0.40;;;12.90;75.10;;;;;;5110017;28;20203;-67
2023/05/18 02:46:02;;;;;;;0.57;0.57;;;12.80;76.10;;;;;;5097898;28;20621;-67
2023/05/18 02:48:30;;;;;;;0.60;0.60;;;12.80;75.70;;;;;;5090634;28;20293;-66
2023/05/18 02:50:58;;;;;;;0.50;0.50;;;12.80;75.90;;;;;;5100103;28;20225;-66
2023/05/18 02:53:26;;;;;;;0.53;0.40;;;;;;;;;;5092276;28;20213;-66
2023/05/18 02:56:02;;;;;;;1.13;0.60;;;12.90;92.80;;;;;;5096890;28;20293;-66
2023/05/18 02:58:36;;;;;;;0.57;0.57;;;12.80;76.10;;;;;;5114740;27;20209;-66
2023/05/18 03:01:12;;;;;;;0.70;0.70;;;12.90;92.80;;;;;;5110055;27;20215;-66
2023/05/18 03:03:46;;;;;;;1.63;0.67;;;12.80;75.80;;;;;;5110766;28;20200;-66
2023/05/18 03:06:14;;;;;;;0.60;0.60;;;12.80;75.80;;;;;;5110589;28;20213;-66
2023/05/18 03:08:43;;;;;;;1.17;0.70;;;;;;;;;;5108671;28;20279;-66
2023/05/18 03:11:12;;;;;;;0.60;0.60;;;12.90;75.30;;;;;;5109872;28;20210;-66
2023/05/18 03:13:40;;;;;;;0.53;0.53;;;12.90;76.20;;;;;;5110970;28;20232;-66
2023/05/18 03:16:07;;;;;;;0.53;0.47;;;12.90;75.90;;;;;;5112686;28;20595;-66
2023/05/18 03:18:35;;;;;;;0.73;0.60;;;12.90;76.00;;;;;;5108504;28;20535;-66
2023/05/18 03:21:03;;;;;;;0.60;0.57;;;11.10;74.00;;;;;;5110253;28;20621;-66
2023/05/18 03:23:30;;;;;;;0.83;0.57;;;12.90;76.00;;;;;;5108561;28;20212;-66
2023/05/18 03:25:58;;;;;;;0.50;0.50;;;12.80;92.10;;;;;;5108132;27;20201;-66
2023/05/18 03:28:28;;;;;;;0.60;0.60;;;12.80;76.20;;;;;;5111218;28;20203;-66
2023/05/18 03:30:55;;;;;;;0.80;0.60;;;12.70;76.20;;;;;;5111724;28;20552;-66
2023/05/18 03:33:22;;;;;;;0.73;0.60;;;12.70;76.30;;;;;;5109775;28;20214;-66
2023/05/18 03:35:51;;;;;;;1.67;0.57;;;12.70;76.50;;;;;;5108109;28;20194;-66
2023/05/18 03:38:19;;;;;;;0.37;0.37;;;12.70;76.80;;;;;;5111993;28;20197;-67
2023/05/18 03:40:54;;;;;;;3.33;0.40;;;;;;;;;;5110212;28;20201;-66
2023/05/18 03:43:24;;;;;;;0.50;0.50;;;12.70;76.20;;;;;;5107654;27;20614;-67
2023/05/18 03:45:51;;;;;;;0.40;0.40;;;12.80;77.10;;;;;;5100887;28;20668;-67
2023/05/18 03:48:18;;;;;;;0.50;0.50;;;12.80;92.70;;;;;;5100901;28;20708;-67
2023/05/18 03:50:46;;;;;;;0.47;0.47;;;12.80;77.20;;;;;;5099347;28;20201;-67
2023/05/18 03:53:17;;;;;;;0.73;0.70;;;;;;;;;;5114245;27;20215;-66
2023/05/18 03:55:48;;;;;;;0.50;0.50;;;12.80;76.60;;;;;;5109007;27;20223;-67
2023/05/18 03:58:15;;;;;;;0.50;0.50;;;12.90;93.00;;;;;;5111109;28;20192;-67
2023/05/18 04:00:42;;;;;;;0.50;0.50;;;12.90;77.50;;;;;;5110419;28;20192;-67
2023/05/18 04:03:11;;;;;;;0.50;0.50;;;12.90;77.90;;;;;;5111862;28;20201;-67
2023/05/18 04:05:39;;;;;;;0.70;0.70;;;13.10;92.90;;;;;;5105359;28;20205;-67
2023/05/18 04:08:07;;;;;;;0.80;0.60;;;12.80;78.00;;;;;;5109737;28;20651;-67
2023/05/18 04:10:34;;;;;;;1.13;0.70;;;12.90;92.90;;;;;;5109260;28;20203;-66
2023/05/18 04:13:05;;;;;;;1.63;0.70;;;12.90;77.80;;;;;;5108963;28;20302;-66
2023/05/18 04:15:33;;;;;;;1.33;1.00;;;12.90;77.80;;;;;;5111578;28;20204;-66
2023/05/18 04:18:00;;;;;;;0.80;0.80;;;;;;;;;;5102524;28;20625;-67
2023/05/18 04:20:28;;;;;;;1.03;0.93;;;12.80;93.30;;;;;;5120257;27;20303;-65
2023/05/18 04:22:59;;;;;;;0.70;0.70;;;12.90;77.90;;;;;;5108574;28;20559;-65
2023/05/18 04:25:26;;;;;;;0.70;0.70;;;12.90;78.00;;;;;;5106541;28;20211;-64
2023/05/18 04:27:54;;;;;;;2.20;0.70;;;;;;;;;;5104159;28;20205;-64
2023/05/18 04:30:26;;;;;;;0.70;0.70;;;12.90;77.20;;;;;;5109711;28;20220;-65
2023/05/18 04:32:53;;;;;;;0.50;0.50;;;13.00;78.00;;;;;;5108859;28;20214;-65
2023/05/18 04:35:21;;;;;;;0.87;0.67;;;;;;;;;;5098336;28;20203;-65
2023/05/18 04:37:48;;;;;;;2.90;0.60;;;13.10;77.20;;;;;;5106460;28;20214;-66
2023/05/18 04:40:18;;;;;;;0.57;0.57;;;13.10;77.80;;;;;;5108842;28;20200;-65
2023/05/18 04:42:47;;;;;;;0.57;0.57;;;13.10;77.80;;;;;;5108966;28;20204;-65
2023/05/18 04:45:18;;;;;;;1.60;0.60;;;13.20;77.80;;;;;;5102320;28;20197;-65
2023/05/18 04:47:52;;;;;;;0.80;0.80;;;13.20;77.70;;;;;;5096531;28;20225;-66
2023/05/18 04:50:20;;;;;;;1.43;0.80;;;13.30;77.70;;;;;;5095513;28;20209;-66
2023/05/18 04:52:52;;;;;;;2.63;0.80;;;13.30;77.70;;;;;;5104013;28;20228;-66
2023/05/18 04:55:24;;;;;;;0.67;0.67;;;13.40;77.70;;;;;;5102078;28;20266;-66
2023/05/18 04:57:55;;;;;;;1.03;0.93;;;13.30;77.60;;;;;;5103076;28;20198;-66
2023/05/18 05:00:24;;;;;;;0.80;0.80;;;13.40;77.70;;;;;;5107222;28;20221;-66
2023/05/18 05:02:53;;;;;;;0.63;0.63;;;13.50;77.70;;;;;;5103567;28;20226;-66
2023/05/18 05:05:20;;;;;;;0.80;0.63;;;13.50;77.60;;;;;;5104407;28;20189;-66
2023/05/18 05:07:49;;;;;;;1.97;0.80;;;13.50;77.50;;;;;;5103811;28;20205;-66
2023/05/18 05:10:16;;;;;;;0.90;0.70;;;13.80;92.30;;;;;;5105385;28;20246;-64
2023/05/18 05:12:44;;;;;;;0.63;0.50;;;13.50;92.30;;;;;;5101350;28;20604;-66
2023/05/18 05:15:12;;;;;;;0.60;0.60;;;;;;;;;;5104944;28;20742;-67
2023/05/18 05:17:40;;;;;;;0.40;0.40;;;;;;;;;;5098880;28;20213;-66
2023/05/18 05:20:10;;;;;;;0.80;0.77;;;13.60;76.60;;;;;;5103760;28;20206;-65
2023/05/18 05:22:38;;;;;;;0.47;0.47;;;;;;;;;;5101046;28;20197;-66
2023/05/18 05:25:09;;;;;;;0.50;0.50;;;14.10;77.00;;;;;;5102499;28;20239;-64
2023/05/18 05:27:36;;;;;;;0.60;0.60;;;13.80;77.20;;;;;;5101181;28;20212;-65
2023/05/18 05:30:04;;;;;;;0.87;0.60;;;13.80;77.10;;;;;;5102297;28;20366;-65
2023/05/18 05:32:35;;;;;;;1.67;0.60;;;13.80;91.60;;;;;;5100967;28;20618;-64
2023/05/18 05:35:03;;;;;;;1.10;0.70;;;13.90;91.50;;;;;;5099482;28;20271;-66
2023/05/18 05:37:32;;;;;;;0.60;0.60;;;16.60;79.80;;;;;;5100142;28;20206;-66
2023/05/18 05:40:00;;;;;;;0.60;0.60;;;;;;;;;;5105559;28;20688;-66
2023/05/18 05:42:31;;;;;;;0.60;0.60;;;13.90;76.20;;;;;;5100427;28;20203;-66
2023/05/18 05:44:59;;;;;;;0.50;0.50;;;14.00;76.90;;;;;;5106921;28;20232;-66
2023/05/18 05:47:27;;;;;;;1.07;0.80;;;14.00;76.60;;;;;;5108729;28;20300;-66
2023/05/18 05:49:55;;;;;;;0.40;0.40;;;14.00;76.50;;;;;;5093947;28;20212;-65
2023/05/18 05:52:27;;;;;;;2.03;0.80;;;14.20;91.00;;;;;;5109230;28;20316;-65
2023/05/18 05:54:56;;;;;;;3.20;0.80;;;14.10;76.30;;;;;;5100860;28;20211;-65
2023/05/18 05:57:24;;;;;;;0.57;0.57;;;14.20;76.20;;;;;;5100902;28;20615;-66
2023/05/18 05:59:52;;;;;;;1.43;0.70;;;14.20;76.10;;;;;;5107423;28;20225;-65
2023/05/18 06:02:19;;;;;;;3.50;0.93;;;14.30;76.20;;;;;;5101609;28;20301;-66
2023/05/18 06:04:46;;;;;;;0.80;0.80;;;14.20;91.20;;;;;;5107538;28;20757;-66
2023/05/18 06:07:13;;;;;;;0.93;0.70;;;14.40;76.00;;;;;;5107816;28;20203;-64
2023/05/18 06:09:41;;;;;;;1.40;0.80;;;14.40;75.80;;;;;;5106285;28;20234;-65
2023/05/18 06:12:10;;;;;;;0.70;0.70;;;14.40;75.50;;;;;;5106351;28;20221;-65
2023/05/18 06:14:38;;;;;;;1.17;0.70;;;14.40;75.50;;;;;;5117914;27;20264;-65
2023/05/18 06:17:06;;;;;;;1.70;0.97;;;14.50;75.40;;;;;;5108196;28;20814;-64
2023/05/18 06:19:33;;;;;;;0.50;0.50;;;14.50;75.40;;;;;;5107612;28;20303;-65
2023/05/18 06:22:00;;;;;;;0.53;0.50;;;14.70;91.00;;;;;;5105889;28;20611;-65
2023/05/18 06:24:31;;;;;;;0.47;0.47;;;14.60;75.50;;;;;;5094161;28;20205;-66
2023/05/18 06:27:22;;;;;;;1.83;0.40;;;14.60;75.30;;;;;;5105535;28;20194;-66
2023/05/18 06:30:16;;;;;;;0.47;0.47;;;14.90;91.30;;;;;;5108664;28;20201;-67
2023/05/18 06:33:00;;;;;;;0.57;0.57;;;14.80;76.30;;;;;;5121499;27;20254;-66
2023/05/18 06:35:27;;;;;;;0.60;0.60;;;14.80;75.00;;;;;;5106757;28;20673;-65
2023/05/18 06:37:54;;;;;;;1.17;0.50;;;14.80;74.80;;;;;;5112967;28;20220;-67
2023/05/18 06:40:21;;;;;;;0.60;0.60;;;14.90;74.80;;;;;;5112507;27;20193;-66
2023/05/18 06:42:50;;;;;;;0.53;0.53;;;14.90;74.80;;;;;;5106355;27;20227;-64
2023/05/18 06:45:25;;;;;;;0.47;0.47;;;14.90;74.60;;;;;;5103651;27;20195;-66
2023/05/18 06:48:00;;;;;;;0.50;0.50;;;15.00;74.50;;;;;;5108316;27;20566;-65
2023/05/18 06:50:31;;;;;;;0.40;0.40;;;;;;;;;;5110018;27;20805;-65
2023/05/18 06:53:03;;;;;;;0.40;0.40;;;15.10;73.50;;;;;;5092600;27;20218;-65
2023/05/18 06:55:30;;;;;;;0.57;0.57;;;15.20;74.10;;;;;;5106483;27;20551;-65
2023/05/18 06:57:59;;;;;;;0.40;0.40;;;15.30;74.00;;;;;;5117255;27;20191;-65
2023/05/18 07:00:26;;;;;;;0.40;0.40;;;15.40;74.00;;;;;;5103028;28;20206;-65
2023/05/18 07:02:56;;;;;;;1.13;0.60;;;15.50;90.20;;;;;;5102493;28;20196;-66
2023/05/18 07:05:24;;;;;;;0.50;0.50;;;15.40;90.40;;;;;;5100237;28;20214;-65
2023/05/18 07:07:51;;;;;;;0.60;0.60;;;15.60;73.60;;;;;;5108244;28;20306;-66
2023/05/18 07:10:20;;;;;;;0.93;0.80;;;15.80;91.70;;;;;;5106715;28;20196;-65
2023/05/18 07:12:47;;;;;;;0.60;0.60;;;15.70;72.80;;;;;;5105910;28;20222;-65
2023/05/18 07:15:15;;;;;;;0.83;0.80;;;15.80;72.70;;;;;;5111235;28;20565;-65
2023/05/18 07:17:45;;;;;;;0.50;0.50;;;15.80;72.20;;;;;;5104056;28;20184;-66
2023/05/18 07:20:12;;;;;;;1.33;0.77;;;15.70;90.50;;;;;;5108896;28;20200;-66
2023/05/18 07:22:39;;;;;;;0.93;0.60;;;;;;;;;;5099100;28;20291;-65
2023/05/18 07:25:07;;;;;;;0.40;0.40;;;16.30;73.00;;;;;;5105694;28;20200;-65
2023/05/18 07:27:34;;;;;;;0.40;0.40;;;16.10;88.10;;;;;;5105719;28;20684;-65
2023/05/18 07:30:02;;;;;;;0.50;0.50;;;16.10;71.30;;;;;;5102438;28;20207;-65
2023/05/18 07:32:30;;;;;;;0.47;0.47;;;16.20;70.60;;;;;;5097290;28;20661;-65
2023/05/18 07:34:58;;;;;;;0.47;0.47;;;16.30;70.60;;;;;;5108578;28;20199;-65
2023/05/18 07:37:25;;;;;;;2.43;0.50;;;16.30;70.40;;;;;;5100073;28;20332;-65
2023/05/18 07:39:52;;;;;;;2.27;0.63;;;16.50;70.20;;;;;;5104827;27;20210;-65
2023/05/18 07:42:19;;;;;;;0.50;0.50;;;16.50;69.60;;;;;;5108041;28;20188;-65
2023/05/18 07:44:46;;;;;;;0.40;0.40;;;16.50;69.50;;;;;;5101795;28;20283;-66
2023/05/18 07:47:14;;;;;;;0.60;0.60;;;16.60;69.10;;;;;;5104625;28;20204;-65
2023/05/18 07:49:43;;;;;;;0.40;0.40;;;16.60;68.80;;;;;;5101955;28;20679;-66
2023/05/18 07:52:10;;;;;;;0.40;0.40;;;16.70;68.20;;;;;;5109565;28;20287;-66
2023/05/18 07:54:37;;;;;;;0.40;0.40;;;16.70;68.00;;;;;;5109712;28;20196;-66
2023/05/18 07:57:05;;;;;;;0.33;0.33;;;16.80;67.80;;;;;;5107537;28;20208;-66
2023/05/18 07:59:32;;;;;;;0.40;0.40;;;16.80;67.00;;;;;;5107603;28;20603;-66
2023/05/18 08:02:00;;;;;;;0.57;0.37;;;16.80;66.50;;;;;;5109577;28;20253;-65
2023/05/18 08:04:28;;;;;;;0.40;0.40;;;16.90;66.30;;;;;;5108561;28;20202;-65
2023/05/18 08:06:59;;;;;;;0.37;0.37;;;16.90;65.80;;;;;;5105275;28;20228;-65
2023/05/18 08:09:26;;;;;;;5.40;0.60;;;17.00;65.50;;;;;;5104109;28;20262;-66
2023/05/18 08:11:53;;;;;;;2.00;0.50;;;17.00;65.30;;;;;;5103059;28;20197;-66
2023/05/18 08:14:20;;;;;;;0.70;0.40;;;17.20;65.00;;;;;;5099489;28;20223;-66
2023/05/18 08:16:48;;;;;;;0.83;0.30;;;17.20;64.80;;;;;;5106751;28;20214;-66
2023/05/18 08:19:15;;;;;;;0.40;0.40;;;17.30;64.60;;;;;;5104445;28;20611;-65
2023/05/18 08:21:44;;;;;;;1.20;0.60;;;17.30;64.40;;;;;;5101398;28;20199;-65
2023/05/18 08:24:13;;;;;;;0.30;0.30;;;17.40;64.30;;;;;;5103938;27;20196;-65
2023/05/18 08:26:40;;;;;;;0.33;0.33;;;17.50;64.00;;;;;;5105554;28;20196;-65
2023/05/18 08:29:09;;;;;;;0.30;0.30;;;17.60;63.70;;;;;;5102120;28;20212;-65
2023/05/18 08:31:36;;;;;;;0.40;0.40;;;17.60;63.40;;;;;;5106759;28;20275;-65
2023/05/18 08:34:04;;;;;;;0.47;0.47;;;17.70;63.30;;;;;;5107528;28;20207;-65
2023/05/18 08:36:32;;;;;;;0.40;0.30;;;17.70;62.90;;;;;;5106607;28;20288;-65
2023/05/18 08:39:00;;;;;;;2.30;0.50;;;17.80;62.70;;;;;;5091212;28;20233;-66
2023/05/18 08:41:32;;;;;;;2.73;0.50;;;17.80;62.00;;;;;;5099307;28;20233;-65
2023/05/18 08:44:03;;;;;;;2.87;0.67;;;17.90;61.60;;;;;;5100486;28;20559;-65
2023/05/18 08:46:34;;;;;;;0.50;0.50;;;18.00;61.50;;;;;;5103369;28;20732;-65
2023/05/18 08:49:03;;;;;;;0.63;0.63;;;18.00;61.30;;;;;;5097995;28;20695;-66
2023/05/18 08:51:34;;;;;;;0.60;0.60;;;18.10;60.60;;;;;;5098023;28;20204;-64
2023/05/18 08:54:02;;;;;;;0.43;0.43;;;18.10;60.10;;;;;;5097061;28;20206;-65
2023/05/18 08:56:33;;;;;;;1.73;0.43;;;18.20;60.20;;;;;;5106432;28;20270;-64
2023/05/18 08:59:03;;;;;;;0.77;0.50;;;18.30;60.10;;;;;;5098156;28;20193;-65
2023/05/18 09:01:31;;;;;;;0.63;0.50;;;18.30;59.90;;;;;;5107984;28;20225;-65
2023/05/18 09:03:59;;;;;;;1.80;0.63;;;18.30;59.60;;;;;;5108818;28;20185;-65
2023/05/18 09:06:27;;;;;;;0.57;0.40;;;18.40;59.20;;;;;;5106570;28;20205;-64
2023/05/18 09:08:56;;;;;;;1.00;0.57;;;18.40;58.70;;;;;;5106418;28;20314;-65
2023/05/18 09:11:26;;;;;;;1.10;0.50;;;18.50;57.80;;;;;;5106710;28;20612;-65
2023/05/18 09:13:54;;;;;;;0.57;0.57;;;18.50;58.00;;;;;;5102589;28;20617;-65
2023/05/18 09:16:22;;;;;;;0.40;0.40;;;18.50;58.00;;;;;;5105719;28;20220;-66
2023/05/18 09:18:49;;;;;;;0.40;0.40;;;18.60;58.20;;;;;;5092814;28;20197;-65
2023/05/18 09:21:17;;;;;;;0.40;0.40;;;18.60;58.30;;;;;;5094973;28;20535;-65
2023/05/18 09:23:44;;;;;;;0.35;0.35;;;18.70;58.40;;;;;;5108998;28;20273;-66
2023/05/18 09:26:12;;;;;;;0.40;0.40;;;18.80;58.30;;;;;;5098145;28;20221;-65
2023/05/18 09:28:41;;;;;;;0.30;0.30;;;18.90;58.30;;;;;;5106482;28;20652;-65
2023/05/18 09:31:19;;;;;;;0.30;0.30;;;19.00;58.20;;;;;;5106401;28;20260;-66
2023/05/18 09:33:47;;;;;;;0.40;0.40;;;19.00;58.10;;;;;;5107099;28;20210;-65
2023/05/18 09:36:15;;;;;;;0.95;0.50;;;19.10;57.80;;;;;;5104862;28;20194;-65
2023/05/18 09:38:44;;;;;;;0.52;0.50;;;19.20;57.40;;;;;;5096731;28;20198;-65
2023/05/18 09:41:13;;;;;;;0.30;0.30;;;19.10;71.60;;;;;;5101155;28;20200;-66
2023/05/18 09:43:42;;;;;;;0.63;0.40;;;19.30;57.10;;;;;;5100831;28;20231;-66
2023/05/18 09:46:12;;;;;;;0.40;0.40;;;19.40;56.20;;;;;;5103376;28;20256;-66
2023/05/18 09:48:43;;;;;;;0.38;0.38;;;19.40;56.80;;;;;;5099768;28;20183;-66
2023/05/18 09:51:12;;;;;;;0.40;0.40;;;19.50;72.00;;;;;;5107781;28;20184;-65
2023/05/18 09:53:40;;;;;;;0.57;0.57;;;19.20;69.00;;;;;;5093949;28;20678;-67
2023/05/18 09:56:10;;;;;;;0.50;0.50;;;19.40;68.10;;;;;;5106478;28;20563;-66
2023/05/18 09:58:39;;;;;;;0.47;0.47;;;19.50;54.60;;;;;;5108196;28;20196;-66
2023/05/18 10:01:06;;;;;;;0.40;0.40;;;19.50;54.90;;;;;;5099379;28;20196;-67
2023/05/18 10:03:37;;;;;;;0.43;0.43;;;19.60;55.00;;;;;;5109060;28;20199;-66
2023/05/18 10:06:06;;;;;;;0.30;0.30;;;19.60;54.90;;;;;;5110441;28;20697;-67
2023/05/18 10:08:33;;;;;;;1.10;1.00;;;19.70;55.10;;;;;;5111109;28;20735;-66
2023/05/18 10:11:01;;;;;;;0.93;0.93;;;19.60;55.00;;;;;;5110384;28;20207;-65
2023/05/18 10:13:30;;;;;;;1.33;0.63;;;19.60;55.10;;;;;;5110722;28;20597;-67
2023/05/18 10:15:59;;;;;;;0.40;0.40;;;19.60;55.40;;;;;;5112542;28;20196;-67
2023/05/18 10:18:28;;;;;;;0.52;0.52;;;19.50;70.60;;;;;;5097383;28;20215;-67
2023/05/18 10:20:58;;;;;;;0.65;0.50;;;19.80;55.70;;;;;;5099271;28;20197;-65
2023/05/18 10:23:26;;;;;;;0.60;0.60;;;19.80;55.70;;;;;;5098291;28;20189;-67
2023/05/18 10:25:54;;;;;;;0.50;0.50;;;19.90;55.40;;;;;;5106216;28;20195;-67
2023/05/18 10:28:27;;;;;;;0.57;0.57;;;19.90;55.10;;;;;;5112364;27;20238;-66
2023/05/18 10:30:56;;;;;;;0.63;0.55;;;19.90;54.40;;;;;;5112230;28;20452;-67
2023/05/18 10:33:26;;;;;;;0.50;0.50;;;20.00;54.30;;;;;;5097018;28;20230;-66
2023/05/18 10:35:55;;;;;;;0.35;0.35;;;20.00;54.40;;;;;;5109870;28;20216;-65
2023/05/18 10:38:25;;;;;;;0.50;0.50;;;20.10;65.80;;;;;;5105067;28;20662;-66
2023/05/18 10:40:53;;;;;;;0.65;0.55;;;20.20;54.70;;;;;;5111386;28;20202;-66
2023/05/18 10:43:22;;;;;;;0.98;0.60;;;20.20;54.00;;;;;;5103595;28;20214;-67
2023/05/18 10:45:56;;;;;;;0.70;0.60;;;20.20;53.60;;;;;;5093563;27;20281;-67
2023/05/18 10:48:30;;;;;;;0.50;0.50;;;20.20;53.80;;;;;;5108453;28;20203;-66
2023/05/18 10:50:59;;;;;;;0.43;0.43;;;20.20;54.00;;;;;;5106106;28;20221;-66
2023/05/18 10:53:28;;;;;;;0.55;0.40;;;20.20;54.30;;;;;;5104908;27;20418;-66
2023/05/18 10:55:56;;;;;;;0.40;0.40;;;20.30;54.30;;;;;;5102157;28;20209;-67
2023/05/18 10:58:27;;;;;;;7.00;0.82;;;20.40;54.30;;;;;;5108682;28;20215;-67
2023/05/18 11:00:59;;;;;;;1.60;0.70;;;20.40;53.50;;;;;;5106973;28;20578;-67
2023/05/18 11:03:27;;;;;;;1.45;0.50;;;20.50;53.00;;;;;;5100581;28;20561;-67
2023/05/18 11:06:07;;;;;;;0.40;0.40;;;20.40;52.60;;;;;;5108094;28;20231;-67
2023/05/18 11:08:53;;;;;;;1.08;0.40;;;20.40;52.80;;;;;;5107111;28;20262;-66
2023/05/18 11:11:25;;;;;;;0.80;0.60;;;20.40;52.40;;;;;;5108156;28;20241;-67
2023/05/18 11:13:52;;;;;;;0.50;0.50;;;20.40;52.30;;;;;;5106791;28;20203;-67
2023/05/18 11:16:19;;;;;;;0.50;0.50;;;20.40;52.50;;;;;;5097555;28;20200;-67
2023/05/18 11:18:49;;;;;;;0.45;0.40;;;20.40;52.50;;;;;;5107053;28;20203;-67
2023/05/18 11:21:41;;;;;;;0.60;0.60;;;20.50;52.70;;;;;;5106320;28;20199;-66
2023/05/18 11:24:17;;;;;;;1.55;0.60;;;20.50;52.70;;;;;;5113604;27;20196;-67
2023/05/18 11:26:46;;;;;;;0.38;0.38;;;20.60;52.60;;;;;;5108793;28;20570;-67
2023/05/18 11:29:22;;;;;;;0.40;0.40;;;20.60;52.60;;;;;;5106823;28;20196;-67
2023/05/18 11:31:51;;;;;;;0.40;0.40;;;20.70;52.80;;;;;;5109904;28;20191;-67
2023/05/18 11:34:43;;;;;;;0.40;0.40;;;20.70;52.60;;;;;;5096039;28;20276;-67
2023/05/18 11:37:13;;;;;;;0.50;0.50;;;20.70;52.30;;;;;;5103684;28;20248;-66
2023/05/18 11:39:40;;;;;;;0.50;0.50;;;20.70;52.20;;;;;;5109186;28;20184;-67
2023/05/18 11:42:09;;;;;;;0.57;0.43;;;20.80;52.60;;;;;;5109942;28;20647;-67
2023/05/18 11:44:38;;;;;;;0.52;0.30;;;20.70;51.80;;;;;;5119816;27;20245;-67
2023/05/18 11:47:09;;;;;;;0.38;0.38;;;20.70;52.00;;;;;;5103429;28;20613;-67
2023/05/18 11:49:42;;;;;;;0.52;0.52;;;20.70;51.70;;;;;;5095409;28;20196;-67
2023/05/18 11:52:18;;;;;;;0.40;0.40;;;20.70;51.70;;;;;;5100329;28;20196;-67
2023/05/18 11:54:49;;;;;;;0.40;0.40;;;20.30;51.30;;;;;;5095276;27;20199;-67
2023/05/18 11:57:19;;;;;;;0.63;0.52;;;20.80;51.50;;;;;;5103181;28;20643;-66
2023/05/18 11:59:48;;;;;;;0.60;0.50;;;20.90;51.70;;;;;;5104881;28;20632;-66
2023/05/18 12:02:20;;;;;;;0.85;0.50;;;20.90;51.60;;;;;;5105600;28;20202;-67
2023/05/18 12:04:51;;;;;;;0.52;0.40;;;20.90;51.20;;;;;;5106393;28;20275;-67
2023/05/18 12:07:21;;;;;;;1.85;0.47;;;20.90;51.10;;;;;;5101000;28;20188;-67
2023/05/18 12:09:49;;;;;;;0.40;0.40;;;20.90;51.20;;;;;;5104196;28;20587;-66
2023/05/18 12:12:18;;;;;;;0.40;0.40;;;20.90;51.30;;;;;;5107994;28;20198;-67
2023/05/18 12:14:53;;;;;;;0.32;0.32;;;21.00;51.20;;;;;;5102880;28;20208;-66
2023/05/18 12:17:23;;;;;;;0.50;0.50;;;21.00;51.20;;;;;;5107650;28;20213;-67
2023/05/18 12:19:50;;;;;;;0.40;0.40;;;21.10;52.20;;;;;;5103977;27;20733;-66
2023/05/18 12:22:18;;;;;;;3.78;0.73;;;21.10;51.20;;;;;;5102538;27;20200;-67
2023/05/18 12:24:46;;;;;;;0.63;0.63;;;21.20;51.20;;;;;;5108417;28;20257;-67
2023/05/18 12:27:13;;;;;;;0.50;0.50;;;21.20;50.90;;;;;;5106019;28;20226;-67
2023/05/18 12:29:42;;;;;;;0.40;0.40;;;21.10;50.80;;;;;;5105194;28;20437;-67
2023/05/18 12:32:11;;;;;;;0.95;0.50;;;21.10;50.70;;;;;;5108546;28;20654;-66
2023/05/18 12:34:39;;;;;;;0.43;0.43;;;21.10;51.00;;;;;;5100105;28;20691;-67
2023/05/18 12:37:07;;;;;;;0.50;0.50;;;21.10;51.10;;;;;;5109200;28;20536;-67
2023/05/18 12:39:35;;;;;;;0.75;0.60;;;21.00;51.40;;;;;;5108271;28;20755;-67
2023/05/18 12:42:11;;;;;;;0.45;0.45;;;21.10;52.00;;;;;;5095005;28;20238;-66
2023/05/18 12:44:38;;;;;;;0.50;0.50;;;21.20;52.20;;;;;;5103641;28;20199;-66
2023/05/18 12:47:06;;;;;;;0.93;0.63;;;21.20;52.50;;;;;;5104538;28;20203;-67
2023/05/18 12:49:37;;;;;;;0.55;0.55;;;21.20;52.70;;;;;;5089214;28;20234;-66
2023/05/18 12:52:15;;;;;;;0.40;0.40;;;21.10;53.50;;;;;;5100036;27;20206;-66
2023/05/18 12:54:58;;;;;;;0.60;0.60;;;21.10;53.10;;;;;;5097689;27;20204;-67
2023/05/18 12:57:29;;;;;;;0.85;0.57;;;21.10;53.00;;;;;;5096677;28;20299;-66
2023/05/18 12:59:57;;;;;;;0.60;0.60;;;21.00;53.10;;;;;;5107181;28;20283;-66
2023/05/18 13:02:32;;;;;;;1.25;0.45;;;21.10;53.80;;;;;;5107903;28;20199;-66
2023/05/18 13:05:04;;;;;;;2.45;0.88;;;21.00;53.60;;;;;;5107318;28;20639;-67